Time;durP1;ratioP1;P1;durP2;ratioP2;P2;SDS_P1;SDS_P2;PMS_P1;PMS_P2;Temp;Humidity;BMP_temperature;BMP_pressure;BME280_temperature;BME280_humidity;BME280_pressure;Samples;Min_cycle;Max_cycle;Signal;HPM_P1;HPM_P2
2020/12/30 00:01:25;;;;;;;14.63;5.95;;;3.90;99.90;;;;;;5058448;28;20024;-74
2020/12/30 00:03:50;;;;;;;13.40;5.72;;;3.90;99.90;;;;;;5056747;28;20510;-74
2020/12/30 00:06:20;;;;;;;15.18;6.03;;;3.90;99.90;;;;;;5057390;28;20489;-74
2020/12/30 00:08:47;;;;;;;13.10;5.88;;;3.90;99.90;;;;;;5059528;28;20017;-74
2020/12/30 00:11:12;;;;;;;13.18;5.88;;;3.90;99.90;;;;;;5046608;28;20037;-74
2020/12/30 00:13:38;;;;;;;9.70;5.43;;;3.90;99.90;;;;;;5042907;28;20059;-74
2020/12/30 00:16:03;;;;;;;12.60;6.68;;;3.90;99.90;;;;;;5044917;28;20017;-74
2020/12/30 00:18:29;;;;;;;11.73;5.85;;;3.90;99.90;;;;;;5039221;28;20021;-75
2020/12/30 00:20:56;;;;;;;13.32;6.57;;;3.90;99.90;;;;;;5036391;28;20021;-75
2020/12/30 00:23:22;;;;;;;8.95;5.80;;;3.80;99.90;;;;;;5044425;28;20108;-75
2020/12/30 00:25:48;;;;;;;12.88;5.82;;;3.80;99.90;;;;;;5044928;28;20012;-75
2020/12/30 00:28:13;;;;;;;10.88;6.30;;;3.80;99.90;;;;;;5042190;28;20422;-74
2020/12/30 00:30:39;;;;;;;15.32;7.63;;;3.80;99.90;;;;;;5045477;28;20017;-74
2020/12/30 00:33:05;;;;;;;19.83;8.77;;;3.80;99.90;;;;;;5035967;28;20116;-73
2020/12/30 00:35:31;;;;;;;14.65;8.68;;;3.80;99.90;;;;;;5042251;28;20797;-74
2020/12/30 00:37:56;;;;;;;14.52;9.48;;;3.80;99.90;;;;;;5049796;28;20179;-74
2020/12/30 00:40:22;;;;;;;17.55;10.07;;;3.80;99.90;;;;;;5037555;28;20050;-74
2020/12/30 00:42:47;;;;;;;18.00;9.68;;;3.80;99.90;;;;;;5045007;28;20033;-74
2020/12/30 00:45:13;;;;;;;18.38;9.85;;;3.80;99.90;;;;;;5036940;28;20520;-74
2020/12/30 00:47:38;;;;;;;21.75;9.32;;;3.80;99.90;;;;;;5042203;28;20048;-74
2020/12/30 00:50:06;;;;;;;22.58;8.77;;;3.80;99.90;;;;;;5044988;28;20374;-74
2020/12/30 00:52:31;;;;;;;18.10;9.30;;;3.80;99.90;;;;;;5046305;28;20021;-74
2020/12/30 00:54:57;;;;;;;19.70;9.80;;;3.80;99.90;;;;;;5035690;28;20124;-74
2020/12/30 00:57:22;;;;;;;27.30;11.60;;;3.80;99.90;;;;;;5035190;28;20032;-74
2020/12/30 00:59:48;;;;;;;19.60;9.65;;;3.80;99.90;;;;;;5042727;28;20021;-74
2020/12/30 01:02:13;;;;;;;24.55;10.32;;;3.80;99.90;;;;;;5030649;28;20129;-74
2020/12/30 01:04:39;;;;;;;21.33;10.80;;;3.80;99.90;;;;;;5032117;28;20026;-74
2020/12/30 01:07:04;;;;;;;20.83;9.82;;;3.80;99.90;;;;;;5036479;28;20743;-74
2020/12/30 01:09:30;;;;;;;24.58;11.52;;;3.80;99.90;;;;;;5035261;28;20021;-74
2020/12/30 01:12:00;;;;;;;23.80;11.20;;;3.80;99.90;;;;;;5036634;28;20017;-74
2020/12/30 01:14:26;;;;;;;;;;;3.80;99.90;;;;;;5050857;28;20021;-74
2020/12/30 01:16:52;;;;;;;25.65;10.65;;;3.80;99.90;;;;;;5042112;28;19915;-74
2020/12/30 01:19:19;;;;;;;22.17;10.93;;;3.80;99.90;;;;;;5053806;28;20029;-74
2020/12/30 01:21:45;;;;;;;24.20;10.70;;;3.80;99.90;;;;;;5047544;28;20028;-74
2020/12/30 01:24:10;;;;;;;24.58;12.05;;;3.80;99.90;;;;;;5054809;28;20401;-74
2020/12/30 01:26:36;;;;;;;26.73;13.02;;;3.80;99.90;;;;;;5048556;28;20104;-74
2020/12/30 01:29:04;;;;;;;23.48;11.90;;;3.80;99.90;;;;;;5053689;28;20488;-74
2020/12/30 01:31:31;;;;;;;25.50;13.18;;;3.80;99.90;;;;;;5047683;28;20107;-74
2020/12/30 01:33:56;;;;;;;31.45;13.95;;;3.80;99.90;;;;;;5040676;28;20017;-74
2020/12/30 01:36:22;;;;;;;31.05;14.75;;;3.80;99.90;;;;;;5039544;28;20083;-75
2020/12/30 01:38:49;;;;;;;29.83;13.90;;;3.80;99.90;;;;;;5056959;28;20021;-74
2020/12/30 01:41:15;;;;;;;30.77;14.68;;;3.80;99.90;;;;;;5037754;28;20051;-74
2020/12/30 01:43:41;;;;;;;28.77;14.82;;;3.90;99.90;;;;;;5047264;28;20025;-74
2020/12/30 01:46:06;;;;;;;32.10;14.20;;;3.90;99.90;;;;;;5047607;28;20039;-74
2020/12/30 01:48:35;;;;;;;30.20;13.05;;;3.90;99.90;;;;;;5045428;28;20017;-74
2020/12/30 01:51:00;;;;;;;29.70;14.45;;;3.90;99.90;;;;;;5027887;28;20029;-74
2020/12/30 01:53:26;;;;;;;29.42;15.05;;;3.90;99.90;;;;;;5042848;28;20084;-73
2020/12/30 01:55:54;;;;;;;29.15;13.23;;;3.90;99.90;;;;;;5051985;28;20017;-73
2020/12/30 01:58:19;;;;;;;35.47;15.52;;;3.90;99.90;;;;;;5051010;28;20410;-73
2020/12/30 02:00:48;;;;;;;36.58;13.98;;;3.90;99.90;;;;;;5049919;28;20017;-73
2020/12/30 02:03:14;;;;;;;33.72;14.00;;;3.80;99.90;;;;;;5050393;28;20397;-73
2020/12/30 02:05:42;;;;;;;29.40;14.10;;;3.80;99.90;;;;;;5039754;28;20303;-73
2020/12/30 02:08:08;;;;;;;30.55;14.82;;;3.80;99.90;;;;;;5047064;28;20041;-73
2020/12/30 02:10:34;;;;;;;29.58;13.38;;;3.80;99.90;;;;;;5050673;28;20465;-73
2020/12/30 02:12:59;;;;;;;24.83;12.30;;;3.80;99.90;;;;;;5048817;28;20021;-73
2020/12/30 02:15:30;;;;;;;28.42;12.52;;;3.80;99.90;;;;;;5048890;28;20063;-73
2020/12/30 02:18:00;;;;;;;27.83;13.63;;;3.70;99.90;;;;;;5036152;28;20033;-73
2020/12/30 02:20:30;;;;;;;29.30;12.38;;;3.70;99.90;;;;;;5038477;28;20030;-73
2020/12/30 02:23:07;;;;;;;;;;;3.70;99.90;;;;;;5043349;28;20021;-73
2020/12/30 02:25:32;;;;;;;29.08;11.52;;;3.70;99.90;;;;;;5030577;28;20331;-73
2020/12/30 02:27:58;;;;;;;26.52;11.85;;;3.70;99.90;;;;;;5046413;28;20029;-73
2020/12/30 02:30:23;;;;;;;18.23;9.32;;;3.60;99.90;;;;;;5042348;28;20028;-73
2020/12/30 02:32:49;;;;;;;23.70;9.95;;;3.60;99.90;;;;;;5044545;28;20059;-74
2020/12/30 02:35:15;;;;;;;19.67;11.55;;;3.70;99.90;;;;;;5050215;28;20017;-74
2020/12/30 02:37:41;;;;;;;21.60;9.80;;;3.70;99.90;;;;;;5057140;28;20060;-74
2020/12/30 02:40:07;;;;;;;19.13;8.13;;;3.70;99.90;;;;;;5056987;28;20358;-74
2020/12/30 02:42:32;;;;;;;17.50;9.05;;;3.80;99.90;;;;;;5050308;28;20060;-74
2020/12/30 02:45:08;;;;;;;14.40;7.70;;;3.80;99.90;;;;;;5049679;28;20058;-74
2020/12/30 02:47:34;;;;;;;16.90;7.60;;;3.90;99.90;;;;;;5050182;28;20032;-74
2020/12/30 02:50:01;;;;;;;19.30;8.93;;;3.90;99.90;;;;;;5049423;28;20017;-74
2020/12/30 02:52:27;;;;;;;18.45;8.68;;;3.90;99.90;;;;;;5040512;28;20029;-74
2020/12/30 02:54:53;;;;;;;13.68;7.30;;;3.90;99.90;;;;;;5043286;28;20071;-74
2020/12/30 02:57:19;;;;;;;14.30;7.30;;;4.00;99.90;;;;;;5042674;28;20065;-74
2020/12/30 02:59:45;;;;;;;17.73;7.95;;;4.00;99.90;;;;;;5041787;28;20031;-74
2020/12/30 03:02:10;;;;;;;19.90;7.75;;;4.00;99.90;;;;;;5045330;28;20140;-74
2020/12/30 03:04:36;;;;;;;14.43;8.00;;;4.00;99.90;;;;;;5039594;28;20044;-74
2020/12/30 03:07:03;;;;;;;15.73;6.28;;;4.00;99.90;;;;;;5051160;28;20028;-74
2020/12/30 03:09:28;;;;;;;18.02;6.95;;;4.00;99.90;;;;;;5049267;28;20032;-73
2020/12/30 03:11:54;;;;;;;17.10;6.28;;;4.00;99.90;;;;;;5047969;28;20428;-73
2020/12/30 03:14:20;;;;;;;10.82;5.97;;;3.90;99.90;;;;;;5046975;28;20143;-73
2020/12/30 03:16:46;;;;;;;9.77;5.00;;;3.90;99.90;;;;;;5039177;28;20537;-73
2020/12/30 03:19:12;;;;;;;13.82;6.20;;;3.90;99.90;;;;;;5047039;28;20024;-73
2020/12/30 03:21:37;;;;;;;13.15;5.40;;;3.90;99.90;;;;;;5038151;28;20445;-73
2020/12/30 03:24:03;;;;;;;13.65;5.90;;;3.80;99.90;;;;;;5033724;28;20482;-73
2020/12/30 03:26:31;;;;;;;13.73;6.65;;;3.90;99.90;;;;;;5049544;28;20029;-73
2020/12/30 03:28:57;;;;;;;16.83;6.80;;;3.90;99.90;;;;;;5047520;28;20125;-73
2020/12/30 03:31:23;;;;;;;13.73;6.93;;;3.80;99.90;;;;;;5047093;28;20478;-73
2020/12/30 03:33:48;;;;;;;14.43;7.70;;;3.80;99.90;;;;;;5038313;28;20132;-73
2020/12/30 03:36:14;;;;;;;19.48;8.05;;;3.80;99.90;;;;;;5045381;28;20032;-73
2020/12/30 03:38:39;;;;;;;14.68;6.90;;;3.80;99.90;;;;;;5049303;28;20307;-73
2020/12/30 03:41:05;;;;;;;16.15;7.30;;;3.70;99.90;;;;;;5051384;28;20122;-73
2020/12/30 03:43:30;;;;;;;12.07;6.15;;;3.70;99.90;;;;;;5060709;28;20494;-73
2020/12/30 03:45:56;;;;;;;15.05;5.57;;;3.70;99.90;;;;;;5048424;28;20037;-73
2020/12/30 03:48:22;;;;;;;11.63;6.30;;;3.70;99.90;;;;;;5042967;28;20018;-73
2020/12/30 03:50:48;;;;;;;13.82;7.43;;;3.70;99.90;;;;;;5028961;28;20025;-73
2020/12/30 03:53:13;;;;;;;13.30;6.13;;;3.70;99.90;;;;;;5046974;28;20477;-73
2020/12/30 03:55:39;;;;;;;12.38;5.72;;;3.70;99.90;;;;;;5049158;28;20057;-73
2020/12/30 03:58:05;;;;;;;14.63;6.75;;;3.70;99.90;;;;;;5048212;28;20029;-73
2020/12/30 04:00:30;;;;;;;12.32;5.63;;;3.70;99.90;;;;;;5047203;28;20025;-73
2020/12/30 04:02:56;;;;;;;12.45;5.05;;;3.70;99.90;;;;;;5048286;28;20104;-74
2020/12/30 04:05:21;;;;;;;8.88;4.57;;;3.70;99.90;;;;;;5048677;28;20025;-73
2020/12/30 04:07:47;;;;;;;11.30;5.03;;;3.70;99.90;;;;;;5048815;28;20017;-73
2020/12/30 04:10:13;;;;;;;9.18;4.38;;;3.70;99.90;;;;;;5034336;28;20424;-73
2020/12/30 04:12:38;;;;;;;9.30;4.43;;;3.70;99.90;;;;;;5048635;28;20021;-73
2020/12/30 04:15:04;;;;;;;8.68;5.03;;;3.70;99.90;;;;;;5038828;28;20079;-73
2020/12/30 04:17:29;;;;;;;10.55;4.90;;;3.70;99.90;;;;;;5048522;28;20393;-73
2020/12/30 04:19:55;;;;;;;8.88;4.63;;;3.70;99.90;;;;;;5046930;28;20047;-73
2020/12/30 04:22:20;;;;;;;13.27;4.72;;;3.70;99.90;;;;;;5047740;28;20037;-73
2020/12/30 04:24:46;;;;;;;7.07;4.15;;;3.60;99.90;;;;;;5047044;28;20112;-73
2020/12/30 04:27:11;;;;;;;8.70;4.10;;;3.60;99.90;;;;;;5034013;28;20034;-73
2020/12/30 04:29:37;;;;;;;11.43;5.93;;;3.60;99.90;;;;;;5048097;28;20025;-73
2020/12/30 04:32:02;;;;;;;6.85;2.78;;;3.60;99.90;;;;;;5047817;28;20067;-73
2020/12/30 04:34:28;;;;;;;5.88;2.85;;;3.60;99.90;;;;;;5047020;28;20066;-74
2020/12/30 04:36:53;;;;;;;6.50;2.45;;;3.60;99.90;;;;;;5034329;28;20399;-73
2020/12/30 04:39:19;;;;;;;6.15;2.40;;;3.60;99.90;;;;;;5047068;28;20051;-73
2020/12/30 04:41:46;;;;;;;3.83;3.00;;;3.70;99.90;;;;;;5048381;28;20048;-73
2020/12/30 04:44:15;;;;;;;4.35;2.25;;;3.70;99.90;;;;;;5047951;28;20036;-73
2020/12/30 04:46:42;;;;;;;6.57;2.90;;;3.70;99.90;;;;;;5046673;28;20090;-73
2020/12/30 04:49:09;;;;;;;4.28;2.72;;;3.80;99.90;;;;;;5046486;28;20021;-73
2020/12/30 04:51:35;;;;;;;5.80;3.17;;;3.80;99.90;;;;;;5047347;28;20028;-73
2020/12/30 04:54:01;;;;;;;7.40;3.47;;;3.80;99.90;;;;;;5047824;28;20040;-73
2020/12/30 04:56:49;;;;;;;6.28;4.18;;;3.90;99.90;;;;;;5047449;28;21179;-73
2020/12/30 04:59:18;;;;;;;8.25;4.05;;;3.90;99.90;;;;;;5036427;28;20055;-73
2020/12/30 05:02:04;;;;;;;9.35;4.00;;;3.90;99.90;;;;;;5055377;28;20395;-73
2020/12/30 05:04:31;;;;;;;7.90;4.43;;;4.00;99.90;;;;;;5043070;28;20034;-73
2020/12/30 05:07:00;;;;;;;9.45;4.20;;;4.00;99.90;;;;;;5050458;28;20029;-73
2020/12/30 05:09:27;;;;;;;11.02;4.10;;;4.10;99.90;;;;;;5034292;28;20021;-73
2020/12/30 05:11:53;;;;;;;6.90;4.40;;;4.00;99.90;;;;;;5048459;28;20082;-73
2020/12/30 05:14:18;;;;;;;16.58;7.03;;;4.10;99.90;;;;;;5040955;28;20033;-73
2020/12/30 05:16:44;;;;;;;10.80;4.57;;;4.10;99.90;;;;;;5037268;28;20072;-73
2020/12/30 05:19:09;;;;;;;9.43;4.68;;;4.10;99.90;;;;;;5047694;28;20572;-73
2020/12/30 05:21:35;;;;;;;12.05;5.68;;;4.10;99.90;;;;;;5048004;28;20452;-73
2020/12/30 05:24:04;;;;;;;11.27;6.20;;;4.20;99.90;;;;;;5033651;28;20098;-73
2020/12/30 05:26:31;;;;;;;14.00;6.75;;;4.20;99.90;;;;;;5054204;28;20063;-73
2020/12/30 05:28:56;;;;;;;15.65;7.63;;;4.20;99.90;;;;;;5044707;28;20025;-74
2020/12/30 05:31:23;;;;;;;16.92;7.82;;;4.20;99.90;;;;;;5053762;28;20021;-74
2020/12/30 05:33:49;;;;;;;21.38;9.43;;;4.20;99.90;;;;;;5071608;28;20081;-74
2020/12/30 05:36:14;;;;;;;21.27;9.25;;;4.20;99.90;;;;;;5056622;28;20029;-74
2020/12/30 05:38:40;;;;;;;17.80;8.30;;;4.20;99.90;;;;;;5071185;28;20628;-74
2020/12/30 05:41:20;;;;;;;19.13;9.20;;;4.20;99.90;;;;;;5055097;28;20021;-74
2020/12/30 05:43:46;;;;;;;17.52;8.35;;;4.30;99.90;;;;;;5040867;28;20390;-74
2020/12/30 05:46:25;;;;;;;20.15;8.20;;;4.30;99.90;;;;;;5047460;28;20021;-74
2020/12/30 05:48:52;;;;;;;16.15;6.47;;;4.30;99.90;;;;;;5049760;28;20578;-74
2020/12/30 05:51:28;;;;;;;15.23;6.63;;;4.30;99.90;;;;;;5050926;28;20107;-74
2020/12/30 05:54:10;;;;;;;15.15;7.65;;;4.30;99.90;;;;;;5050112;28;20021;-74
2020/12/30 05:56:37;;;;;;;16.77;7.28;;;4.30;99.90;;;;;;5046907;28;20100;-74
2020/12/30 05:59:03;;;;;;;14.32;6.70;;;4.30;99.90;;;;;;5039125;28;20090;-74
2020/12/30 06:01:30;;;;;;;13.60;7.30;;;4.20;99.90;;;;;;5036470;28;20061;-74
2020/12/30 06:03:56;;;;;;;16.63;6.45;;;4.20;99.90;;;;;;5051126;28;20032;-74
2020/12/30 06:06:21;;;;;;;17.77;7.88;;;4.20;99.90;;;;;;5048782;28;20029;-74
2020/12/30 06:08:51;;;;;;;18.15;8.00;;;4.20;99.90;;;;;;5050646;28;20071;-74
2020/12/30 06:11:23;;;;;;;10.65;6.43;;;4.20;99.90;;;;;;5050911;28;20024;-74
2020/12/30 06:13:52;;;;;;;11.77;6.72;;;4.20;99.90;;;;;;5040269;28;20021;-74
2020/12/30 06:16:22;;;;;;;11.38;5.20;;;4.20;99.90;;;;;;5039890;28;20017;-74
2020/12/30 06:18:49;;;;;;;12.68;5.53;;;4.20;99.90;;;;;;5050549;28;20029;-74
2020/12/30 06:21:16;;;;;;;12.25;4.80;;;4.10;99.90;;;;;;5029555;28;20049;-74
2020/12/30 06:23:42;;;;;;;10.38;4.50;;;4.10;99.90;;;;;;5031971;28;20034;-74
2020/12/30 06:26:17;;;;;;;11.10;4.95;;;4.10;99.90;;;;;;5047581;28;20025;-74
2020/12/30 06:28:49;;;;;;;7.32;4.50;;;4.10;99.90;;;;;;5052161;28;20099;-74
2020/12/30 06:31:15;;;;;;;12.95;4.85;;;4.10;99.90;;;;;;5049872;28;20017;-74
2020/12/30 06:33:41;;;;;;;11.70;4.47;;;4.00;99.90;;;;;;5048672;28;20512;-74
2020/12/30 06:36:06;;;;;;;8.32;3.90;;;4.00;99.90;;;;;;5050310;28;20025;-74
2020/12/30 06:38:32;;;;;;;6.28;3.20;;;4.00;99.90;;;;;;5049722;28;20035;-74
2020/12/30 06:41:07;;;;;;;7.28;3.20;;;3.90;99.90;;;;;;5050224;28;20025;-74
2020/12/30 06:43:35;;;;;;;7.05;3.33;;;3.90;99.90;;;;;;5050101;28;20107;-74
2020/12/30 06:46:02;;;;;;;7.43;3.22;;;3.90;99.90;;;;;;5048331;28;20041;-74
2020/12/30 06:48:27;;;;;;;5.38;3.15;;;3.80;99.90;;;;;;5048701;28;20017;-74
2020/12/30 06:50:53;;;;;;;7.53;2.80;;;3.80;99.90;;;;;;5050369;28;20028;-74
2020/12/30 06:53:27;;;;;;;6.75;3.40;;;3.80;99.90;;;;;;5049243;28;20013;-74
2020/12/30 06:55:53;;;;;;;5.80;2.85;;;3.80;99.90;;;;;;5049878;28;20215;-74
2020/12/30 06:58:44;;;;;;;6.10;3.38;;;3.80;99.90;;;;;;5045268;28;20532;-74
2020/12/30 07:01:15;;;;;;;9.32;3.22;;;3.70;99.90;;;;;;5028706;28;20504;-74
2020/12/30 07:03:40;;;;;;;;;;;3.70;99.90;;;;;;5036233;28;20033;-74
2020/12/30 07:06:25;;;;;;;5.78;3.05;;;3.70;99.90;;;;;;5037850;28;20362;-74
2020/12/30 07:08:52;;;;;;;5.43;3.10;;;3.70;99.90;;;;;;5041592;28;20195;-74
2020/12/30 07:11:37;;;;;;;9.63;3.83;;;3.60;99.90;;;;;;5040822;28;20057;-74
2020/12/30 07:14:14;;;;;;;8.23;3.75;;;3.70;99.90;;;;;;5036836;28;20053;-74
2020/12/30 07:16:44;;;;;;;6.75;4.00;;;3.60;99.90;;;;;;5049634;28;20092;-74
2020/12/30 07:19:12;;;;;;;8.30;4.28;;;3.70;99.90;;;;;;5048743;28;20052;-74
2020/12/30 07:22:12;;;;;;;9.43;3.80;;;3.60;99.90;;;;;;5049587;28;20402;-74
2020/12/30 07:24:46;;;;;;;9.20;3.92;;;3.70;99.90;;;;;;5039991;28;20101;-74
2020/12/30 07:27:13;;;;;;;7.45;3.42;;;3.70;99.90;;;;;;5044411;28;20040;-74
2020/12/30 07:29:40;;;;;;;8.50;3.70;;;3.80;99.90;;;;;;5033821;28;20120;-74
2020/12/30 07:32:07;;;;;;;6.97;3.60;;;3.90;99.90;;;;;;5049468;28;20021;-74
2020/12/30 07:34:43;;;;;;;7.82;3.03;;;3.90;99.90;;;;;;5049866;28;20108;-74
2020/12/30 07:37:10;;;;;;;9.00;2.70;;;3.90;99.90;;;;;;5038883;28;20030;-74
2020/12/30 07:39:41;;;;;;;5.65;3.15;;;3.90;99.90;;;;;;5046322;28;20445;-74
2020/12/30 07:42:13;;;;;;;;;;;4.00;99.90;;;;;;5039269;28;20033;-74
2020/12/30 07:44:47;;;;;;;5.40;2.30;;;4.00;99.90;;;;;;5061451;28;19923;-74
2020/12/30 07:47:13;;;;;;;6.20;2.65;;;4.00;99.90;;;;;;5048716;28;20486;-74
2020/12/30 07:49:38;;;;;;;8.90;3.08;;;4.10;99.90;;;;;;5062997;28;20025;-75
2020/12/30 07:52:05;;;;;;;6.50;2.95;;;4.10;99.90;;;;;;5048920;28;20025;-75
2020/12/30 07:54:31;;;;;;;6.10;3.20;;;4.10;99.90;;;;;;5033753;28;20687;-74
2020/12/30 07:57:04;;;;;;;9.82;3.45;;;4.10;99.90;;;;;;5062145;28;20040;-75
2020/12/30 07:59:30;;;;;;;8.57;4.05;;;4.10;99.90;;;;;;5047097;28;20027;-75
2020/12/30 08:02:01;;;;;;;5.57;2.72;;;4.10;99.90;;;;;;5054281;28;20561;-75
2020/12/30 08:04:28;;;;;;;6.63;3.28;;;4.20;99.90;;;;;;5054475;28;20433;-75
2020/12/30 08:06:55;;;;;;;8.82;3.42;;;4.20;99.90;;;;;;5048112;28;20100;-75
2020/12/30 08:09:28;;;;;;;8.48;2.75;;;4.20;99.90;;;;;;5043144;28;20025;-74
2020/12/30 08:11:59;;;;;;;5.47;2.75;;;4.20;99.90;;;;;;5041240;28;20021;-74
2020/12/30 08:14:28;;;;;;;6.93;2.70;;;4.20;99.90;;;;;;5046458;28;20049;-75
2020/12/30 08:16:58;;;;;;;6.78;2.72;;;4.20;99.90;;;;;;5048505;28;20120;-74
2020/12/30 08:19:38;;;;;;;6.65;2.92;;;4.30;99.90;;;;;;5046511;28;20482;-75
2020/12/30 08:22:05;;;;;;;5.30;2.92;;;4.30;99.90;;;;;;5047088;28;20021;-74
2020/12/30 08:24:32;;;;;;;8.65;3.33;;;4.30;99.90;;;;;;5042264;28;20429;-74
2020/12/30 08:26:58;;;;;;;8.68;3.90;;;4.30;99.90;;;;;;5038950;28;20029;-75
2020/12/30 08:29:37;;;;;;;6.20;2.65;;;4.40;99.90;;;;;;5047489;28;20095;-75
2020/12/30 08:32:26;;;;;;;4.55;2.88;;;4.40;99.90;;;;;;5038050;28;20018;-75
2020/12/30 08:34:55;;;;;;;4.13;2.67;;;4.40;99.90;;;;;;5038765;28;20171;-75
2020/12/30 08:37:32;;;;;;;9.02;3.25;;;4.40;99.90;;;;;;5049685;28;20029;-74
2020/12/30 08:40:04;;;;;;;6.03;2.97;;;4.40;99.90;;;;;;5048831;28;20025;-75
2020/12/30 08:42:52;;;;;;;6.82;2.92;;;4.50;99.90;;;;;;5037356;28;20496;-75
2020/12/30 08:45:24;;;;;;;9.75;3.38;;;4.50;99.90;;;;;;5028414;28;20407;-75
2020/12/30 08:47:53;;;;;;;6.93;3.00;;;4.50;99.90;;;;;;5027961;28;20036;-75
2020/12/30 08:50:21;;;;;;;7.43;3.17;;;4.50;99.90;;;;;;5048309;28;20021;-73
2020/12/30 08:52:47;;;;;;;7.75;3.05;;;4.50;99.90;;;;;;5047659;28;20028;-73
2020/12/30 08:55:14;;;;;;;4.85;2.85;;;4.50;99.90;;;;;;5048200;28;20025;-73
2020/12/30 08:57:44;;;;;;;7.85;3.40;;;4.50;99.90;;;;;;5047667;28;20033;-73
2020/12/30 09:00:23;;;;;;;9.73;3.33;;;4.50;99.90;;;;;;5047663;28;20059;-73
2020/12/30 09:03:16;;;;;;;7.63;2.83;;;4.50;99.90;;;;;;5051507;28;20394;-73
2020/12/30 09:05:50;;;;;;;8.88;2.88;;;4.50;99.90;;;;;;5041679;28;20025;-73
2020/12/30 09:08:22;;;;;;;8.70;3.20;;;4.50;99.90;;;;;;5048071;28;20120;-73
2020/12/30 09:10:47;;;;;;;10.40;3.58;;;4.50;99.90;;;;;;5049631;28;20017;-73
2020/12/30 09:13:17;;;;;;;9.52;3.10;;;4.50;99.90;;;;;;5051685;28;20036;-73
2020/12/30 09:15:44;;;;;;;8.97;4.03;;;4.50;99.90;;;;;;5048254;28;20037;-73
2020/12/30 09:18:12;;;;;;;7.55;3.35;;;4.50;99.90;;;;;;5051627;28;20505;-73
2020/12/30 09:20:37;;;;;;;14.40;4.32;;;4.60;99.90;;;;;;5051372;28;20033;-73
2020/12/30 09:23:04;;;;;;;7.97;3.67;;;4.60;99.90;;;;;;5052108;28;20139;-73
2020/12/30 09:25:36;;;;;;;11.00;4.47;;;4.70;99.90;;;;;;5039423;28;20038;-74
2020/12/30 09:28:13;;;;;;;12.32;4.10;;;4.80;99.90;;;;;;5050229;28;20032;-73
2020/12/30 09:30:38;;;;;;;12.20;4.72;;;4.90;99.90;;;;;;5051446;28;20021;-73
2020/12/30 09:33:18;;;;;;;14.40;4.15;;;5.20;99.90;;;;;;5051233;28;20033;-73
2020/12/30 09:35:45;;;;;;;6.88;2.67;;;5.50;99.90;;;;;;5051447;28;20029;-73
2020/12/30 09:38:19;;;;;;;6.40;2.53;;;5.70;99.90;;;;;;5035724;28;20498;-73
2020/12/30 09:40:47;;;;;;;5.57;2.28;;;5.80;99.90;;;;;;5051837;28;20017;-73
2020/12/30 09:43:30;;;;;;;3.95;1.98;;;6.00;99.90;;;;;;5065622;28;20122;-73
2020/12/30 09:45:57;;;;;;;4.43;1.98;;;6.00;99.90;;;;;;5050502;28;20091;-73
2020/12/30 09:48:23;;;;;;;2.00;1.27;;;6.10;99.90;;;;;;5052058;28;20425;-73
2020/12/30 09:50:51;;;;;;;4.03;1.00;;;6.20;99.90;;;;;;5051361;28;20025;-73
2020/12/30 09:53:17;;;;;;;10.02;0.80;;;6.20;99.90;;;;;;5049243;28;20013;-73
2020/12/30 09:55:43;;;;;;;7.75;0.90;;;6.30;99.90;;;;;;5038189;28;20078;-73
2020/12/30 09:58:09;;;;;;;2.15;0.52;;;6.30;99.90;;;;;;5053994;28;20048;-73
2020/12/30 10:00:35;;;;;;;6.63;0.60;;;6.30;99.90;;;;;;5061547;28;20016;-73
2020/12/30 10:03:00;;;;;;;8.82;1.77;;;6.30;99.90;;;;;;5059936;28;20040;-73
2020/12/30 10:05:26;;;;;;;9.63;1.00;;;6.30;99.90;;;;;;5054565;28;20033;-73
2020/12/30 10:07:51;;;;;;;7.82;0.70;;;6.30;99.90;;;;;;5062781;28;20025;-74
2020/12/30 10:10:17;;;;;;;5.80;1.70;;;6.30;99.90;;;;;;5059526;28;20118;-73
2020/12/30 10:12:46;;;;;;;2.80;0.75;;;6.30;99.90;;;;;;5056684;28;20025;-74
2020/12/30 10:15:12;;;;;;;2.95;0.68;;;6.40;99.90;;;;;;5057396;28;20025;-74
2020/12/30 10:17:38;;;;;;;1.88;1.08;;;6.50;99.90;;;;;;5054575;28;20021;-74
2020/12/30 10:20:06;;;;;;;3.28;1.00;;;6.70;99.90;;;;;;5054760;28;20300;-73
2020/12/30 10:22:32;;;;;;;1.80;0.90;;;7.00;99.90;;;;;;5062867;28;20024;-73
2020/12/30 10:24:58;;;;;;;5.45;1.38;;;7.20;99.90;;;;;;5058522;28;20033;-74
2020/12/30 10:27:24;;;;;;;5.00;1.40;;;7.40;99.90;;;;;;5059103;28;20076;-74
2020/12/30 10:29:49;;;;;;;3.97;0.95;;;7.50;99.90;;;;;;5062214;28;20112;-73
2020/12/30 10:32:15;;;;;;;2.40;0.90;;;7.50;99.90;;;;;;5059851;28;20111;-74
2020/12/30 10:34:40;;;;;;;4.57;1.15;;;7.50;99.90;;;;;;5052782;28;20021;-73
2020/12/30 10:37:07;;;;;;;4.13;0.30;;;7.30;99.90;;;;;;5066444;28;20021;-74
2020/12/30 10:39:33;;;;;;;3.70;0.52;;;7.20;99.90;;;;;;5050998;28;20477;-74
2020/12/30 10:41:59;;;;;;;0.98;0.20;;;7.00;99.90;;;;;;5051945;28;20554;-73
2020/12/30 10:44:25;;;;;;;2.15;0.30;;;6.90;99.90;;;;;;5055615;28;20400;-74
2020/12/30 10:46:52;;;;;;;1.08;0.30;;;6.70;99.90;;;;;;5051085;28;20029;-73
2020/12/30 10:49:18;;;;;;;2.97;0.20;;;6.70;99.90;;;;;;5056813;28;20425;-76
2020/12/30 10:51:50;;;;;;;0.52;0.20;;;6.60;99.90;;;;;;5057813;28;20025;-75
2020/12/30 10:54:16;;;;;;;2.40;0.30;;;6.60;99.90;;;;;;5057608;28;20017;-75
2020/12/30 10:56:48;;;;;;;2.50;0.28;;;6.60;99.90;;;;;;5065942;28;20501;-76
2020/12/30 10:59:15;;;;;;;0.70;0.30;;;6.60;99.90;;;;;;5060534;28;20027;-76
2020/12/30 11:01:41;;;;;;;3.13;0.50;;;6.50;99.90;;;;;;5060713;28;20037;-74
2020/12/30 11:04:06;;;;;;;3.03;0.40;;;6.40;99.90;;;;;;5056867;28;20107;-75
2020/12/30 11:06:32;;;;;;;1.02;0.30;;;6.40;99.90;;;;;;5056305;28;20381;-74
2020/12/30 11:08:57;;;;;;;5.15;0.45;;;6.40;99.90;;;;;;5060301;28;20439;-74
2020/12/30 11:11:23;;;;;;;1.40;0.47;;;6.30;99.90;;;;;;5053343;28;20059;-74
2020/12/30 11:13:48;;;;;;;3.78;0.80;;;6.20;99.90;;;;;;5056177;28;20478;-74
2020/12/30 11:16:14;;;;;;;2.42;0.50;;;6.20;99.90;;;;;;5063801;28;20444;-74
2020/12/30 11:18:39;;;;;;;3.30;0.68;;;6.20;99.90;;;;;;5060487;28;20047;-74
2020/12/30 11:21:05;;;;;;;7.28;0.82;;;6.20;99.90;;;;;;5061987;28;20109;-72
2020/12/30 11:23:30;;;;;;;4.78;1.40;;;6.30;99.90;;;;;;5061360;28;20043;-72
2020/12/30 11:25:56;;;;;;;4.88;0.65;;;6.30;99.90;;;;;;5056066;28;20543;-72
2020/12/30 11:28:22;;;;;;;2.80;0.73;;;6.30;99.90;;;;;;5065394;28;20068;-72
2020/12/30 11:30:47;;;;;;;6.28;1.40;;;6.40;99.90;;;;;;5066840;28;20107;-73
2020/12/30 11:33:14;;;;;;;2.50;1.40;;;6.50;99.90;;;;;;5052598;28;20026;-75
2020/12/30 11:35:40;;;;;;;5.88;1.98;;;;;;;;;;5067414;28;20021;-75
2020/12/30 11:38:06;;;;;;;3.72;1.70;;;;;;;;;;5061288;28;20035;-75
2020/12/30 11:40:32;;;;;;;2.92;0.80;;;;;;;;;;5073412;28;20033;-75
2020/12/30 11:42:58;;;;;;;5.18;1.15;;;;;;;;;;5058078;28;20510;-75
2020/12/30 11:45:24;;;;;;;4.60;0.88;;;;;;;;;;5069465;28;20029;-75
2020/12/30 11:47:50;;;;;;;6.35;0.93;;;;;;;;;;5064808;28;20039;-75
2020/12/30 11:50:16;;;;;;;2.20;0.30;;;;;;;;;;5055848;28;20024;-76
2020/12/30 11:52:46;;;;;;;3.60;0.45;;;;;;;;;;5060857;28;20124;-73
2020/12/30 11:55:12;;;;;;;2.20;0.40;;;;;;;;;;5065608;28;20086;-74
2020/12/30 11:57:38;;;;;;;3.45;0.60;;;;;;;;;;5052338;28;20386;-73
2020/12/30 12:00:08;;;;;;;6.78;0.60;;;;;;;;;;5078988;28;20139;-73
2020/12/30 12:02:34;;;;;;;3.13;0.73;;;;;;;;;;5066717;28;20060;-74
2020/12/30 12:05:00;;;;;;;2.67;0.77;;;;;;;;;;5063670;28;20032;-74
2020/12/30 12:07:28;;;;;;;4.97;0.50;;;;;;;;;;5050989;28;20025;-76
2020/12/30 12:09:53;;;;;;;3.67;0.50;;;;;;;;;;5049495;28;20025;-76
2020/12/30 12:12:19;;;;;;;2.35;0.82;;;;;;;;;;5074919;28;20039;-74
2020/12/30 12:14:45;;;;;;;2.45;0.40;;;;;;;;;;5055538;28;20024;-74
2020/12/30 12:17:11;;;;;;;5.45;0.80;;;;;;;;;;5060550;28;20371;-74
2020/12/30 12:19:37;;;;;;;1.48;0.50;;;;;;;;;;5051836;28;20031;-74
2020/12/30 12:22:03;;;;;;;1.98;0.70;;;;;;;;;;5077755;28;20032;-74
2020/12/30 12:24:29;;;;;;;3.55;1.02;;;;;;;;;;5067095;28;20020;-74
2020/12/30 12:26:55;;;;;;;1.90;0.28;;;;;;;;;;5066079;28;20316;-74
2020/12/30 12:29:36;;;;;;;1.70;0.47;;;;;;;;;;5078319;28;20252;-74
2020/12/30 12:32:03;;;;;;;2.10;0.60;;;;;;;;;;5076749;28;20103;-74
2020/12/30 12:34:29;;;;;;;1.98;0.45;;;;;;;;;;5050424;28;20355;-75
2020/12/30 12:36:55;;;;;;;1.15;0.45;;;;;;;;;;5078084;28;20396;-74
2020/12/30 12:39:21;;;;;;;4.97;0.70;;;;;;;;;;5065403;28;20036;-74
2020/12/30 12:41:50;;;;;;;2.75;0.50;;;;;;;;;;5068666;28;20023;-75
2020/12/30 12:44:16;;;;;;;3.42;1.33;;;;;;;;;;5068562;28;20122;-75
2020/12/30 12:46:42;;;;;;;4.47;0.77;;;;;;;;;;5064411;28;20056;-74
2020/12/30 12:49:08;;;;;;;5.57;0.82;;;;;;;;;;5064954;28;20024;-75
2020/12/30 12:51:36;;;;;;;3.25;0.80;;;;;;;;;;5073670;28;20886;-75
2020/12/30 12:54:02;;;;;;;3.03;0.90;;;;;;;;;;5061667;28;20029;-76
2020/12/30 12:56:28;;;;;;;4.30;1.02;;;;;;;;;;5058579;28;20036;-76
2020/12/30 12:58:54;;;;;;;7.28;1.67;;;;;;;;;;5068752;28;20032;-76
2020/12/30 13:01:20;;;;;;;3.42;1.08;;;;;;;;;;5068265;28;20486;-76
2020/12/30 13:03:46;;;;;;;5.90;1.13;;;;;;;;;;5064999;28;20079;-75
2020/12/30 13:06:12;;;;;;;3.20;1.27;;;;;;;;;;5064424;28;20029;-74